sensor_id;sensor_type;location;lat;lon;timestamp;P1;durP1;ratioP1;P2;durP2;ratioP2
64361;SDS011;50685;53.346;-6.296;2023-06-22T06:06:53;9.32;;;4.95;;
64361;SDS011;50685;53.346;-6.296;2023-06-22T06:09:19;7.25;;;3.92;;
64361;SDS011;50685;53.346;-6.296;2023-06-22T06:11:45;11.55;;;5.35;;
64361;SDS011;50685;53.346;-6.296;2023-06-22T06:14:10;11.07;;;5.25;;
64361;SDS011;50685;53.346;-6.296;2023-06-22T06:16:36;9.25;;;5.32;;
64361;SDS011;50685;53.346;-6.296;2023-06-22T06:19:02;9.65;;;4.82;;
64361;SDS011;50685;53.346;-6.296;2023-06-22T06:21:28;9.18;;;4.93;;
64361;SDS011;50685;53.346;-6.296;2023-06-22T06:23:53;14.73;;;5.95;;
64361;SDS011;50685;53.346;-6.296;2023-06-22T06:26:19;14.52;;;6.50;;
64361;SDS011;50685;53.346;-6.296;2023-06-22T06:28:53;10.48;;;6.25;;
64361;SDS011;50685;53.346;-6.296;2023-06-22T06:31:25;12.10;;;6.85;;
64361;SDS011;50685;53.346;-6.296;2023-06-22T06:33:55;10.00;;;6.35;;
64361;SDS011;50685;53.346;-6.296;2023-06-22T06:36:26;10.95;;;6.68;;
64361;SDS011;50685;53.346;-6.296;2023-06-22T06:38:57;14.32;;;7.38;;
64361;SDS011;50685;53.346;-6.296;2023-06-22T06:41:24;10.93;;;8.07;;
64361;SDS011;50685;53.346;-6.296;2023-06-22T06:43:52;19.52;;;8.60;;
64361;SDS011;50685;53.346;-6.296;2023-06-22T06:46:27;11.18;;;7.57;;
64361;SDS011;50685;53.346;-6.296;2023-06-22T06:49:19;8.23;;;6.75;;
64361;SDS011;50685;53.346;-6.296;2023-06-22T06:51:59;11.95;;;6.65;;
64361;SDS011;50685;53.346;-6.296;2023-06-22T06:54:27;10.88;;;6.40;;
64361;SDS011;50685;53.346;-6.296;2023-06-22T06:56:59;8.50;;;6.50;;
64361;SDS011;50685;53.346;-6.296;2023-06-22T06:59:47;12.30;;;7.25;;
64361;SDS011;50685;53.346;-6.296;2023-06-22T07:02:20;6.65;;;5.68;;
64361;SDS011;50685;53.346;-6.296;2023-06-22T07:04:52;10.00;;;6.87;;
64361;SDS011;50685;53.346;-6.296;2023-06-22T07:07:28;9.48;;;6.60;;
64361;SDS011;50685;53.346;-6.296;2023-06-22T07:10:03;12.27;;;5.93;;
64361;SDS011;50685;53.346;-6.296;2023-06-22T07:12:32;10.57;;;5.85;;
64361;SDS011;50685;53.346;-6.296;2023-06-22T07:15:04;6.93;;;6.22;;
64361;SDS011;50685;53.346;-6.296;2023-06-22T07:17:52;9.30;;;6.35;;
64361;SDS011;50685;53.346;-6.296;2023-06-22T07:20:34;7.22;;;6.18;;
64361;SDS011;50685;53.346;-6.296;2023-06-22T07:23:15;8.35;;;5.38;;
64361;SDS011;50685;53.346;-6.296;2023-06-22T07:25:52;7.07;;;5.28;;
64361;SDS011;50685;53.346;-6.296;2023-06-22T07:28:22;9.32;;;5.97;;
64361;SDS011;50685;53.346;-6.296;2023-06-22T07:30:51;9.25;;;5.57;;
64361;SDS011;50685;53.346;-6.296;2023-06-22T07:33:27;10.13;;;4.68;;
64361;SDS011;50685;53.346;-6.296;2023-06-22T07:35:52;9.52;;;4.03;;
64361;SDS011;50685;53.346;-6.296;2023-06-22T07:38:48;7.13;;;3.83;;
64361;SDS011;50685;53.346;-6.296;2023-06-22T07:41:23;7.55;;;4.13;;
64361;SDS011;50685;53.346;-6.296;2023-06-22T07:43:54;8.30;;;3.95;;
64361;SDS011;50685;53.346;-6.296;2023-06-22T07:46:20;9.77;;;4.75;;
64361;SDS011;50685;53.346;-6.296;2023-06-22T07:48:54;7.07;;;4.50;;
64361;SDS011;50685;53.346;-6.296;2023-06-22T07:58:22;6.55;;;4.57;;
64361;SDS011;50685;53.346;-6.296;2023-06-22T08:29:20;3.17;;;2.00;;
64361;SDS011;50685;53.346;-6.296;2023-06-22T08:31:46;5.13;;;2.28;;
64361;SDS011;50685;53.346;-6.296;2023-06-22T08:40:52;4.60;;;2.33;;
64361;SDS011;50685;53.346;-6.296;2023-06-22T08:43:41;5.40;;;2.33;;
64361;SDS011;50685;53.346;-6.296;2023-06-22T08:46:08;7.60;;;2.33;;
64361;SDS011;50685;53.346;-6.296;2023-06-22T08:48:36;2.97;;;2.17;;
64361;SDS011;50685;53.346;-6.296;2023-06-22T08:57:58;4.35;;;2.20;;
64361;SDS011;50685;53.346;-6.296;2023-06-22T09:00:24;5.32;;;2.10;;
64361;SDS011;50685;53.346;-6.296;2023-06-22T09:02:52;3.17;;;1.88;;
64361;SDS011;50685;53.346;-6.296;2023-06-22T09:05:24;6.68;;;1.92;;
64361;SDS011;50685;53.346;-6.296;2023-06-22T09:07:51;6.97;;;3.00;;
64361;SDS011;50685;53.346;-6.296;2023-06-22T09:10:17;5.10;;;2.67;;
64361;SDS011;50685;53.346;-6.296;2023-06-22T09:12:43;4.05;;;2.53;;
64361;SDS011;50685;53.346;-6.296;2023-06-22T09:15:14;4.80;;;2.80;;
64361;SDS011;50685;53.346;-6.296;2023-06-22T09:17:42;4.85;;;2.40;;
64361;SDS011;50685;53.346;-6.296;2023-06-22T09:20:07;4.38;;;2.00;;
64361;SDS011;50685;53.346;-6.296;2023-06-22T09:22:36;3.03;;;2.08;;
64361;SDS011;50685;53.346;-6.296;2023-06-22T09:25:02;3.40;;;2.13;;
64361;SDS011;50685;53.346;-6.296;2023-06-22T09:27:28;2.53;;;2.00;;
64361;SDS011;50685;53.346;-6.296;2023-06-22T09:29:54;4.90;;;2.22;;
64361;SDS011;50685;53.346;-6.296;2023-06-22T09:32:20;7.00;;;2.20;;
64361;SDS011;50685;53.346;-6.296;2023-06-22T09:34:48;3.38;;;1.92;;
64361;SDS011;50685;53.346;-6.296;2023-06-22T09:37:14;7.47;;;2.78;;
64361;SDS011;50685;53.346;-6.296;2023-06-22T09:39:39;3.75;;;2.10;;
64361;SDS011;50685;53.346;-6.296;2023-06-22T09:42:07;8.07;;;1.95;;
64361;SDS011;50685;53.346;-6.296;2023-06-22T09:44:38;4.38;;;2.10;;
64361;SDS011;50685;53.346;-6.296;2023-06-22T09:47:06;5.15;;;2.35;;
64361;SDS011;50685;53.346;-6.296;2023-06-22T09:49:35;4.50;;;2.05;;
64361;SDS011;50685;53.346;-6.296;2023-06-22T09:52:08;5.05;;;2.25;;
64361;SDS011;50685;53.346;-6.296;2023-06-22T09:54:36;3.97;;;1.67;;
64361;SDS011;50685;53.346;-6.296;2023-06-22T09:57:01;3.25;;;1.90;;
64361;SDS011;50685;53.346;-6.296;2023-06-22T09:59:27;4.93;;;2.10;;
64361;SDS011;50685;53.346;-6.296;2023-06-22T10:01:55;3.08;;;2.20;;
64361;SDS011;50685;53.346;-6.296;2023-06-22T10:04:22;4.38;;;1.42;;
64361;SDS011;50685;53.346;-6.296;2023-06-22T10:06:49;2.58;;;1.70;;
64361;SDS011;50685;53.346;-6.296;2023-06-22T10:09:15;9.95;;;2.40;;
64361;SDS011;50685;53.346;-6.296;2023-06-22T10:11:40;4.15;;;2.05;;
64361;SDS011;50685;53.346;-6.296;2023-06-22T10:14:06;4.00;;;1.85;;
64361;SDS011;50685;53.346;-6.296;2023-06-22T10:16:32;4.88;;;1.90;;
64361;SDS011;50685;53.346;-6.296;2023-06-22T10:18:58;7.05;;;2.17;;
64361;SDS011;50685;53.346;-6.296;2023-06-22T10:21:24;11.68;;;2.58;;
64361;SDS011;50685;53.346;-6.296;2023-06-22T10:23:53;2.53;;;1.77;;
64361;SDS011;50685;53.346;-6.296;2023-06-22T10:26:20;4.68;;;1.65;;
64361;SDS011;50685;53.346;-6.296;2023-06-22T10:28:46;4.18;;;2.00;;
64361;SDS011;50685;53.346;-6.296;2023-06-22T10:31:18;5.63;;;1.70;;
64361;SDS011;50685;53.346;-6.296;2023-06-22T10:33:48;4.60;;;1.90;;
64361;SDS011;50685;53.346;-6.296;2023-06-22T10:36:14;8.60;;;1.95;;
64361;SDS011;50685;53.346;-6.296;2023-06-22T10:38:40;6.22;;;1.90;;
64361;SDS011;50685;53.346;-6.296;2023-06-22T10:41:05;4.80;;;1.77;;
64361;SDS011;50685;53.346;-6.296;2023-06-22T10:43:31;2.80;;;2.00;;
64361;SDS011;50685;53.346;-6.296;2023-06-22T10:45:57;3.67;;;2.13;;
64361;SDS011;50685;53.346;-6.296;2023-06-22T10:48:22;2.50;;;1.70;;
64361;SDS011;50685;53.346;-6.296;2023-06-22T10:50:48;3.95;;;1.73;;
64361;SDS011;50685;53.346;-6.296;2023-06-22T10:53:13;9.00;;;1.55;;
64361;SDS011;50685;53.346;-6.296;2023-06-22T10:55:39;3.85;;;1.95;;
64361;SDS011;50685;53.346;-6.296;2023-06-22T10:58:04;5.28;;;2.00;;
64361;SDS011;50685;53.346;-6.296;2023-06-22T11:00:30;4.85;;;1.52;;
64361;SDS011;50685;53.346;-6.296;2023-06-22T11:02:56;7.55;;;2.10;;
64361;SDS011;50685;53.346;-6.296;2023-06-22T11:05:23;3.63;;;1.88;;
64361;SDS011;50685;53.346;-6.296;2023-06-22T11:07:49;3.58;;;1.60;;
64361;SDS011;50685;53.346;-6.296;2023-06-22T11:10:15;7.15;;;2.08;;
64361;SDS011;50685;53.346;-6.296;2023-06-22T11:12:41;3.72;;;1.92;;
64361;SDS011;50685;53.346;-6.296;2023-06-22T11:15:08;4.30;;;1.60;;
64361;SDS011;50685;53.346;-6.296;2023-06-22T11:17:34;3.88;;;2.05;;
64361;SDS011;50685;53.346;-6.296;2023-06-22T11:19:59;3.05;;;1.42;;
64361;SDS011;50685;53.346;-6.296;2023-06-22T11:22:25;3.03;;;1.85;;
64361;SDS011;50685;53.346;-6.296;2023-06-22T11:24:51;4.07;;;1.83;;
64361;SDS011;50685;53.346;-6.296;2023-06-22T11:27:17;4.20;;;2.10;;
64361;SDS011;50685;53.346;-6.296;2023-06-22T11:29:42;2.42;;;1.63;;
64361;SDS011;50685;53.346;-6.296;2023-06-22T11:32:08;3.55;;;1.90;;
64361;SDS011;50685;53.346;-6.296;2023-06-22T11:34:34;3.85;;;1.50;;
64361;SDS011;50685;53.346;-6.296;2023-06-22T11:36:59;3.30;;;2.03;;
64361;SDS011;50685;53.346;-6.296;2023-06-22T11:39:25;2.35;;;1.60;;
64361;SDS011;50685;53.346;-6.296;2023-06-22T11:41:51;2.80;;;2.00;;
64361;SDS011;50685;53.346;-6.296;2023-06-22T11:44:16;2.60;;;1.88;;
64361;SDS011;50685;53.346;-6.296;2023-06-22T11:46:42;4.20;;;1.90;;
64361;SDS011;50685;53.346;-6.296;2023-06-22T11:49:08;2.05;;;1.63;;
64361;SDS011;50685;53.346;-6.296;2023-06-22T11:51:33;4.05;;;2.03;;
64361;SDS011;50685;53.346;-6.296;2023-06-22T11:53:59;5.95;;;2.20;;
64361;SDS011;50685;53.346;-6.296;2023-06-22T11:56:24;6.93;;;2.30;;
64361;SDS011;50685;53.346;-6.296;2023-06-22T11:58:52;2.20;;;1.50;;
64361;SDS011;50685;53.346;-6.296;2023-06-22T12:01:19;7.57;;;2.80;;
64361;SDS011;50685;53.346;-6.296;2023-06-22T12:03:44;11.55;;;2.55;;
64361;SDS011;50685;53.346;-6.296;2023-06-22T12:06:10;2.83;;;2.42;;
64361;SDS011;50685;53.346;-6.296;2023-06-22T12:08:35;6.43;;;2.40;;
64361;SDS011;50685;53.346;-6.296;2023-06-22T12:11:01;2.45;;;1.98;;
64361;SDS011;50685;53.346;-6.296;2023-06-22T12:13:26;2.97;;;2.13;;
64361;SDS011;50685;53.346;-6.296;2023-06-22T12:15:52;3.92;;;2.05;;
64361;SDS011;50685;53.346;-6.296;2023-06-22T12:18:17;5.03;;;2.08;;
64361;SDS011;50685;53.346;-6.296;2023-06-22T12:20:45;3.75;;;2.05;;
64361;SDS011;50685;53.346;-6.296;2023-06-22T12:23:11;3.97;;;1.90;;
64361;SDS011;50685;53.346;-6.296;2023-06-22T12:25:37;4.22;;;1.80;;
64361;SDS011;50685;53.346;-6.296;2023-06-22T12:28:02;2.40;;;1.80;;
64361;SDS011;50685;53.346;-6.296;2023-06-22T12:30:29;5.15;;;2.08;;
64361;SDS011;50685;53.346;-6.296;2023-06-22T12:32:55;3.90;;;1.80;;
64361;SDS011;50685;53.346;-6.296;2023-06-22T12:35:21;2.78;;;2.20;;
64361;SDS011;50685;53.346;-6.296;2023-06-22T12:37:46;2.08;;;1.88;;
64361;SDS011;50685;53.346;-6.296;2023-06-22T12:40:12;3.50;;;2.42;;
64361;SDS011;50685;53.346;-6.296;2023-06-22T12:42:38;4.03;;;2.47;;
64361;SDS011;50685;53.346;-6.296;2023-06-22T12:45:04;3.72;;;2.15;;
64361;SDS011;50685;53.346;-6.296;2023-06-22T12:47:30;5.32;;;2.03;;
64361;SDS011;50685;53.346;-6.296;2023-06-22T12:49:56;3.53;;;2.20;;
64361;SDS011;50685;53.346;-6.296;2023-06-22T12:52:22;6.03;;;2.80;;
64361;SDS011;50685;53.346;-6.296;2023-06-22T12:54:48;3.30;;;2.30;;
64361;SDS011;50685;53.346;-6.296;2023-06-22T12:57:13;3.85;;;2.13;;
64361;SDS011;50685;53.346;-6.296;2023-06-22T12:59:39;2.50;;;2.30;;
64361;SDS011;50685;53.346;-6.296;2023-06-22T13:02:05;6.80;;;1.67;;
64361;SDS011;50685;53.346;-6.296;2023-06-22T13:04:30;6.88;;;2.28;;
64361;SDS011;50685;53.346;-6.296;2023-06-22T13:06:56;2.90;;;2.20;;
64361;SDS011;50685;53.346;-6.296;2023-06-22T13:09:21;2.55;;;2.08;;
64361;SDS011;50685;53.346;-6.296;2023-06-22T13:11:47;4.00;;;2.22;;
64361;SDS011;50685;53.346;-6.296;2023-06-22T13:14:16;3.55;;;2.17;;
64361;SDS011;50685;53.346;-6.296;2023-06-22T13:16:41;4.32;;;2.30;;
64361;SDS011;50685;53.346;-6.296;2023-06-22T13:19:07;5.22;;;2.63;;
64361;SDS011;50685;53.346;-6.296;2023-06-22T13:21:32;3.17;;;2.63;;
64361;SDS011;50685;53.346;-6.296;2023-06-22T13:23:59;3.47;;;3.17;;
64361;SDS011;50685;53.346;-6.296;2023-06-22T13:26:24;2.63;;;2.40;;
64361;SDS011;50685;53.346;-6.296;2023-06-22T13:28:50;2.72;;;2.35;;
64361;SDS011;50685;53.346;-6.296;2023-06-22T13:31:15;4.00;;;2.15;;
64361;SDS011;50685;53.346;-6.296;2023-06-22T13:33:43;5.55;;;2.10;;
64361;SDS011;50685;53.346;-6.296;2023-06-22T13:36:11;4.50;;;2.15;;
64361;SDS011;50685;53.346;-6.296;2023-06-22T13:38:36;3.13;;;2.50;;
64361;SDS011;50685;53.346;-6.296;2023-06-22T13:41:05;2.78;;;2.10;;
64361;SDS011;50685;53.346;-6.296;2023-06-22T13:43:31;3.58;;;2.53;;
64361;SDS011;50685;53.346;-6.296;2023-06-22T13:45:56;2.90;;;1.98;;
64361;SDS011;50685;53.346;-6.296;2023-06-22T13:48:25;3.00;;;1.95;;
64361;SDS011;50685;53.346;-6.296;2023-06-22T13:50:51;2.80;;;1.90;;
64361;SDS011;50685;53.346;-6.296;2023-06-22T13:53:17;2.92;;;2.55;;
64361;SDS011;50685;53.346;-6.296;2023-06-22T13:55:45;4.60;;;2.10;;
64361;SDS011;50685;53.346;-6.296;2023-06-22T13:58:12;7.63;;;1.83;;
64361;SDS011;50685;53.346;-6.296;2023-06-22T14:00:38;3.05;;;2.38;;
64361;SDS011;50685;53.346;-6.296;2023-06-22T14:03:06;6.07;;;2.10;;
64361;SDS011;50685;53.346;-6.296;2023-06-22T14:05:31;2.72;;;2.22;;
64361;SDS011;50685;53.346;-6.296;2023-06-22T14:07:57;4.28;;;2.60;;
64361;SDS011;50685;53.346;-6.296;2023-06-22T14:10:23;3.50;;;2.38;;
64361;SDS011;50685;53.346;-6.296;2023-06-22T14:12:48;7.05;;;2.15;;
64361;SDS011;50685;53.346;-6.296;2023-06-22T14:15:14;6.20;;;2.25;;
64361;SDS011;50685;53.346;-6.296;2023-06-22T14:17:42;3.97;;;2.65;;
64361;SDS011;50685;53.346;-6.296;2023-06-22T14:20:10;5.68;;;2.22;;
64361;SDS011;50685;53.346;-6.296;2023-06-22T14:22:36;4.28;;;2.60;;
64361;SDS011;50685;53.346;-6.296;2023-06-22T14:25:09;3.85;;;2.08;;
64361;SDS011;50685;53.346;-6.296;2023-06-22T14:27:35;2.22;;;1.75;;
64361;SDS011;50685;53.346;-6.296;2023-06-22T14:30:00;2.40;;;1.92;;
64361;SDS011;50685;53.346;-6.296;2023-06-22T14:32:27;4.28;;;2.38;;
64361;SDS011;50685;53.346;-6.296;2023-06-22T14:34:59;3.08;;;2.08;;
64361;SDS011;50685;53.346;-6.296;2023-06-22T14:37:24;1.95;;;1.83;;
64361;SDS011;50685;53.346;-6.296;2023-06-22T14:39:50;2.75;;;2.55;;
64361;SDS011;50685;53.346;-6.296;2023-06-22T14:42:18;3.55;;;1.92;;
64361;SDS011;50685;53.346;-6.296;2023-06-22T14:44:43;4.93;;;1.77;;
64361;SDS011;50685;53.346;-6.296;2023-06-22T14:47:11;3.85;;;1.50;;
64361;SDS011;50685;53.346;-6.296;2023-06-22T14:49:48;1.83;;;1.38;;
64361;SDS011;50685;53.346;-6.296;2023-06-22T14:52:13;1.33;;;1.23;;
64361;SDS011;50685;53.346;-6.296;2023-06-22T14:54:39;1.40;;;1.30;;
64361;SDS011;50685;53.346;-6.296;2023-06-22T14:57:05;1.50;;;1.40;;
64361;SDS011;50685;53.346;-6.296;2023-06-22T15:06:13;2.15;;;2.00;;
64361;SDS011;50685;53.346;-6.296;2023-06-22T15:21:41;1.75;;;1.60;;
64361;SDS011;50685;53.346;-6.296;2023-06-22T15:24:47;3.70;;;1.77;;
64361;SDS011;50685;53.346;-6.296;2023-06-22T15:27:24;2.30;;;2.10;;
64361;SDS011;50685;53.346;-6.296;2023-06-22T15:33:09;4.43;;;3.15;;
64361;SDS011;50685;53.346;-6.296;2023-06-22T15:52:42;1.48;;;1.38;;
64361;SDS011;50685;53.346;-6.296;2023-06-22T15:59:09;3.78;;;1.60;;
64361;SDS011;50685;53.346;-6.296;2023-06-22T16:09:08;3.63;;;1.83;;
64361;SDS011;50685;53.346;-6.296;2023-06-22T16:11:54;3.20;;;1.67;;
64361;SDS011;50685;53.346;-6.296;2023-06-22T16:14:19;4.90;;;1.85;;
64361;SDS011;50685;53.346;-6.296;2023-06-22T16:16:48;4.75;;;2.05;;
64361;SDS011;50685;53.346;-6.296;2023-06-22T16:19:18;6.07;;;2.10;;
64361;SDS011;50685;53.346;-6.296;2023-06-22T16:21:44;3.60;;;2.05;;
64361;SDS011;50685;53.346;-6.296;2023-06-22T16:24:18;3.33;;;2.22;;
64361;SDS011;50685;53.346;-6.296;2023-06-22T16:26:49;4.43;;;1.90;;
64361;SDS011;50685;53.346;-6.296;2023-06-22T16:29:24;5.32;;;1.92;;
64361;SDS011;50685;53.346;-6.296;2023-06-22T16:31:49;7.35;;;2.47;;
64361;SDS011;50685;53.346;-6.296;2023-06-22T16:34:15;2.67;;;1.83;;
64361;SDS011;50685;53.346;-6.296;2023-06-22T16:36:40;4.22;;;1.85;;
64361;SDS011;50685;53.346;-6.296;2023-06-22T16:39:12;6.95;;;1.98;;
64361;SDS011;50685;53.346;-6.296;2023-06-22T16:41:41;1.90;;;1.80;;
64361;SDS011;50685;53.346;-6.296;2023-06-22T16:44:27;2.40;;;1.58;;
64361;SDS011;50685;53.346;-6.296;2023-06-22T16:47:03;3.30;;;1.65;;
64361;SDS011;50685;53.346;-6.296;2023-06-22T16:49:32;4.00;;;1.70;;
64361;SDS011;50685;53.346;-6.296;2023-06-22T16:52:02;2.83;;;2.22;;
64361;SDS011;50685;53.346;-6.296;2023-06-22T16:54:31;2.03;;;1.90;;
64361;SDS011;50685;53.346;-6.296;2023-06-22T16:57:02;3.40;;;2.10;;
64361;SDS011;50685;53.346;-6.296;2023-06-22T16:59:38;2.33;;;2.00;;
64361;SDS011;50685;53.346;-6.296;2023-06-22T17:02:07;2.92;;;2.40;;
64361;SDS011;50685;53.346;-6.296;2023-06-22T17:04:43;5.45;;;2.88;;
64361;SDS011;50685;53.346;-6.296;2023-06-22T17:07:14;5.68;;;3.05;;
64361;SDS011;50685;53.346;-6.296;2023-06-22T17:09:45;3.70;;;3.13;;
64361;SDS011;50685;53.346;-6.296;2023-06-22T17:12:12;4.28;;;3.33;;
64361;SDS011;50685;53.346;-6.296;2023-06-22T17:14:56;4.43;;;3.10;;
64361;SDS011;50685;53.346;-6.296;2023-06-22T17:17:23;2.95;;;2.47;;
64361;SDS011;50685;53.346;-6.296;2023-06-22T17:20:03;2.88;;;2.67;;
64361;SDS011;50685;53.346;-6.296;2023-06-22T17:22:30;3.13;;;2.80;;
64361;SDS011;50685;53.346;-6.296;2023-06-22T17:25:34;4.45;;;3.35;;
64361;SDS011;50685;53.346;-6.296;2023-06-22T17:28:00;4.53;;;2.77;;
64361;SDS011;50685;53.346;-6.296;2023-06-22T17:30:26;3.47;;;3.13;;
64361;SDS011;50685;53.346;-6.296;2023-06-22T17:32:56;5.15;;;2.75;;
64361;SDS011;50685;53.346;-6.296;2023-06-22T17:35:31;3.08;;;2.40;;
64361;SDS011;50685;53.346;-6.296;2023-06-22T17:37:58;1.83;;;1.73;;
64361;SDS011;50685;53.346;-6.296;2023-06-22T17:40:27;1.95;;;1.85;;
64361;SDS011;50685;53.346;-6.296;2023-06-22T17:45:44;2.17;;;1.58;;
64361;SDS011;50685;53.346;-6.296;2023-06-22T17:48:14;4.28;;;2.10;;
64361;SDS011;50685;53.346;-6.296;2023-06-22T17:50:40;2.00;;;1.80;;
64361;SDS011;50685;53.346;-6.296;2023-06-22T17:53:12;3.17;;;2.13;;
64361;SDS011;50685;53.346;-6.296;2023-06-22T17:55:38;1.70;;;1.60;;
64361;SDS011;50685;53.346;-6.296;2023-06-22T17:58:04;2.08;;;1.80;;
64361;SDS011;50685;53.346;-6.296;2023-06-22T18:00:32;2.95;;;1.65;;
64361;SDS011;50685;53.346;-6.296;2023-06-22T18:02:58;2.67;;;1.60;;
64361;SDS011;50685;53.346;-6.296;2023-06-22T18:05:30;3.88;;;1.83;;
64361;SDS011;50685;53.346;-6.296;2023-06-22T18:08:04;1.75;;;1.63;;
64361;SDS011;50685;53.346;-6.296;2023-06-22T18:10:34;3.53;;;2.00;;
64361;SDS011;50685;53.346;-6.296;2023-06-22T18:13:01;3.22;;;2.03;;
64361;SDS011;50685;53.346;-6.296;2023-06-22T18:15:30;2.00;;;1.80;;
64361;SDS011;50685;53.346;-6.296;2023-06-22T18:18:05;2.13;;;1.92;;
64361;SDS011;50685;53.346;-6.296;2023-06-22T18:20:33;1.70;;;1.60;;
64361;SDS011;50685;53.346;-6.296;2023-06-22T18:23:04;2.00;;;1.80;;
64361;SDS011;50685;53.346;-6.296;2023-06-22T18:25:33;3.15;;;1.30;;
64361;SDS011;50685;53.346;-6.296;2023-06-22T18:27:59;1.95;;;1.27;;
64361;SDS011;50685;53.346;-6.296;2023-06-22T18:30:25;5.47;;;1.40;;
64361;SDS011;50685;53.346;-6.296;2023-06-22T18:33:02;1.70;;;1.60;;
64361;SDS011;50685;53.346;-6.296;2023-06-22T18:35:57;1.42;;;1.33;;
64361;SDS011;50685;53.346;-6.296;2023-06-22T18:48:50;4.13;;;2.25;;
64361;SDS011;50685;53.346;-6.296;2023-06-22T18:52:31;2.97;;;1.65;;
64361;SDS011;50685;53.346;-6.296;2023-06-22T18:54:55;2.10;;;1.90;;
64361;SDS011;50685;53.346;-6.296;2023-06-22T18:57:21;3.08;;;1.85;;
64361;SDS011;50685;53.346;-6.296;2023-06-22T19:09:14;3.75;;;2.63;;
64361;SDS011;50685;53.346;-6.296;2023-06-22T19:11:40;3.88;;;2.55;;
64361;SDS011;50685;53.346;-6.296;2023-06-22T19:14:06;3.85;;;2.80;;
64361;SDS011;50685;53.346;-6.296;2023-06-22T19:16:34;3.90;;;2.53;;
64361;SDS011;50685;53.346;-6.296;2023-06-22T19:19:11;6.13;;;3.13;;
64361;SDS011;50685;53.346;-6.296;2023-06-22T19:21:37;5.38;;;2.65;;
64361;SDS011;50685;53.346;-6.296;2023-06-22T19:24:03;3.78;;;2.53;;
64361;SDS011;50685;53.346;-6.296;2023-06-22T19:26:32;4.45;;;3.13;;
64361;SDS011;50685;53.346;-6.296;2023-06-22T19:29:01;2.53;;;2.20;;
64361;SDS011;50685;53.346;-6.296;2023-06-22T19:31:43;6.68;;;2.75;;
64361;SDS011;50685;53.346;-6.296;2023-06-22T19:34:09;4.28;;;3.05;;
64361;SDS011;50685;53.346;-6.296;2023-06-22T19:36:38;4.85;;;2.75;;
64361;SDS011;50685;53.346;-6.296;2023-06-22T19:39:13;3.13;;;2.33;;
64361;SDS011;50685;53.346;-6.296;2023-06-22T19:41:39;2.77;;;2.43;;
64361;SDS011;50685;53.346;-6.296;2023-06-22T19:44:04;2.70;;;2.35;;
64361;SDS011;50685;53.346;-6.296;2023-06-22T19:46:31;8.55;;;3.03;;
64361;SDS011;50685;53.346;-6.296;2023-06-22T19:48:58;4.05;;;2.63;;
64361;SDS011;50685;53.346;-6.296;2023-06-22T19:51:34;8.45;;;2.95;;
64361;SDS011;50685;53.346;-6.296;2023-06-22T19:54:04;3.65;;;2.20;;
64361;SDS011;50685;53.346;-6.296;2023-06-22T19:56:35;3.47;;;2.40;;
64361;SDS011;50685;53.346;-6.296;2023-06-22T19:59:10;4.75;;;2.17;;
64361;SDS011;50685;53.346;-6.296;2023-06-22T20:01:41;2.80;;;2.60;;
64361;SDS011;50685;53.346;-6.296;2023-06-22T20:04:07;2.97;;;2.78;;
64361;SDS011;50685;53.346;-6.296;2023-06-22T20:06:33;3.92;;;2.88;;
64361;SDS011;50685;53.346;-6.296;2023-06-22T20:08:59;3.47;;;2.90;;
64361;SDS011;50685;53.346;-6.296;2023-06-22T20:11:29;5.03;;;2.70;;
64361;SDS011;50685;53.346;-6.296;2023-06-22T20:13:57;5.72;;;3.55;;
64361;SDS011;50685;53.346;-6.296;2023-06-22T20:16:25;2.92;;;2.72;;
64361;SDS011;50685;53.346;-6.296;2023-06-22T20:21:36;5.28;;;3.83;;
64361;SDS011;50685;53.346;-6.296;2023-06-22T20:24:06;5.05;;;3.53;;
64361;SDS011;50685;53.346;-6.296;2023-06-22T20:26:39;6.07;;;4.57;;
64361;SDS011;50685;53.346;-6.296;2023-06-22T20:29:25;6.68;;;4.53;;
64361;SDS011;50685;53.346;-6.296;2023-06-22T20:32:01;11.50;;;4.95;;
64361;SDS011;50685;53.346;-6.296;2023-06-22T20:34:27;5.85;;;4.45;;
64361;SDS011;50685;53.346;-6.296;2023-06-22T20:37:01;7.22;;;4.80;;
64361;SDS011;50685;53.346;-6.296;2023-06-22T20:39:26;13.07;;;5.32;;
64361;SDS011;50685;53.346;-6.296;2023-06-22T20:41:52;5.63;;;4.85;;
64361;SDS011;50685;53.346;-6.296;2023-06-22T20:44:19;7.68;;;5.55;;
64361;SDS011;50685;53.346;-6.296;2023-06-22T20:46:45;9.75;;;5.53;;
64361;SDS011;50685;53.346;-6.296;2023-06-22T20:49:11;7.32;;;4.95;;
64361;SDS011;50685;53.346;-6.296;2023-06-22T20:51:37;10.40;;;5.05;;
64361;SDS011;50685;53.346;-6.296;2023-06-22T20:54:02;6.47;;;5.18;;
64361;SDS011;50685;53.346;-6.296;2023-06-22T20:56:29;7.75;;;4.38;;
64361;SDS011;50685;53.346;-6.296;2023-06-22T20:58:55;4.78;;;4.22;;
64361;SDS011;50685;53.346;-6.296;2023-06-22T21:01:20;8.20;;;4.80;;
64361;SDS011;50685;53.346;-6.296;2023-06-22T21:03:46;10.20;;;4.85;;
64361;SDS011;50685;53.346;-6.296;2023-06-22T21:06:11;4.85;;;4.32;;
64361;SDS011;50685;53.346;-6.296;2023-06-22T21:08:37;9.15;;;4.85;;
64361;SDS011;50685;53.346;-6.296;2023-06-22T21:11:03;8.85;;;3.88;;
64361;SDS011;50685;53.346;-6.296;2023-06-22T21:13:29;7.85;;;4.13;;
64361;SDS011;50685;53.346;-6.296;2023-06-22T21:15:57;5.13;;;4.10;;
64361;SDS011;50685;53.346;-6.296;2023-06-22T21:18:25;4.85;;;3.97;;
64361;SDS011;50685;53.346;-6.296;2023-06-22T21:20:50;6.05;;;4.50;;
64361;SDS011;50685;53.346;-6.296;2023-06-22T21:23:17;4.95;;;4.10;;
64361;SDS011;50685;53.346;-6.296;2023-06-22T21:25:43;9.43;;;4.82;;
64361;SDS011;50685;53.346;-6.296;2023-06-22T21:28:08;7.05;;;4.57;;
64361;SDS011;50685;53.346;-6.296;2023-06-22T21:30:34;8.68;;;4.85;;
64361;SDS011;50685;53.346;-6.296;2023-06-22T21:33:00;5.30;;;4.47;;
64361;SDS011;50685;53.346;-6.296;2023-06-22T21:35:26;7.13;;;4.25;;
64361;SDS011;50685;53.346;-6.296;2023-06-22T21:37:55;5.75;;;4.60;;
64361;SDS011;50685;53.346;-6.296;2023-06-22T21:40:20;6.03;;;4.30;;
64361;SDS011;50685;53.346;-6.296;2023-06-22T21:42:48;7.85;;;4.45;;
64361;SDS011;50685;53.346;-6.296;2023-06-22T21:45:15;8.15;;;4.50;;
64361;SDS011;50685;53.346;-6.296;2023-06-22T21:47:40;8.00;;;5.05;;
64361;SDS011;50685;53.346;-6.296;2023-06-22T21:50:06;4.97;;;4.30;;
64361;SDS011;50685;53.346;-6.296;2023-06-22T21:52:32;6.18;;;4.20;;
64361;SDS011;50685;53.346;-6.296;2023-06-22T21:54:57;3.80;;;3.50;;
64361;SDS011;50685;53.346;-6.296;2023-06-22T21:57:23;6.10;;;3.97;;
64361;SDS011;50685;53.346;-6.296;2023-06-22T21:59:55;4.28;;;3.80;;
64361;SDS011;50685;53.346;-6.296;2023-06-22T22:02:24;4.85;;;4.07;;
64361;SDS011;50685;53.346;-6.296;2023-06-22T22:04:50;5.00;;;4.15;;
64361;SDS011;50685;53.346;-6.296;2023-06-22T22:07:19;7.13;;;3.50;;
64361;SDS011;50685;53.346;-6.296;2023-06-22T22:09:45;5.95;;;4.40;;
64361;SDS011;50685;53.346;-6.296;2023-06-22T22:12:10;6.97;;;4.70;;
64361;SDS011;50685;53.346;-6.296;2023-06-22T22:14:36;6.97;;;4.68;;
64361;SDS011;50685;53.346;-6.296;2023-06-22T22:17:06;7.03;;;4.72;;
64361;SDS011;50685;53.346;-6.296;2023-06-22T22:19:34;6.75;;;4.40;;
64361;SDS011;50685;53.346;-6.296;2023-06-22T22:22:00;4.65;;;4.10;;
64361;SDS011;50685;53.346;-6.296;2023-06-22T22:24:26;5.68;;;3.95;;
64361;SDS011;50685;53.346;-6.296;2023-06-22T22:26:51;7.38;;;4.50;;
64361;SDS011;50685;53.346;-6.296;2023-06-22T22:29:17;6.22;;;4.47;;
64361;SDS011;50685;53.346;-6.296;2023-06-22T22:31:42;7.13;;;4.07;;
64361;SDS011;50685;53.346;-6.296;2023-06-22T22:34:08;7.75;;;4.20;;
64361;SDS011;50685;53.346;-6.296;2023-06-22T22:36:36;5.10;;;4.00;;
64361;SDS011;50685;53.346;-6.296;2023-06-22T22:39:06;9.93;;;4.95;;
64361;SDS011;50685;53.346;-6.296;2023-06-22T22:41:32;5.88;;;4.55;;
64361;SDS011;50685;53.346;-6.296;2023-06-22T22:43:58;4.75;;;4.25;;
64361;SDS011;50685;53.346;-6.296;2023-06-22T22:46:24;11.45;;;4.68;;
64361;SDS011;50685;53.346;-6.296;2023-06-22T22:48:50;6.22;;;4.10;;
64361;SDS011;50685;53.346;-6.296;2023-06-22T22:51:16;5.35;;;3.92;;
64361;SDS011;50685;53.346;-6.296;2023-06-22T22:53:41;4.45;;;3.47;;